Phoenix, Arizona
Current Conditions -  °F | °C
As of 9:51 AM on Thursday 23 Oct 2014 (Local Time) from KPHX Reporting Station
Few Clouds Few Clouds  
Wind Chill: 27°   Ceiling: Unl
Heat Index: 27°   Visibility: 10mi
Dew Point: 10°   Wind: 8mph
Humidity: 35%   Direction: 80°E
Pressure: 30.04"   Gusts: NA
Location:  33.45°N, 112.08°W
Report Text: KPHX 231651Z 08007KT 10SM FEW250 27/10 A3004 RMK AO2 SLP157 T02670100
Loading
Personal Weather Stations






























Interactive Weather Map New forecast layout! Learn more

10-Day Weather Forecast

Advertisements
Track Severe Weather on mobile